Terminal Aerodrome Forecast
Issued by NWS St Louis, MO

Home | Current Version | Previous Version | Graphics & Text | Print | Product List | Glossary On
Versions: 1 2 3 4 5 6 7 8 9 10 11 12 13 14 15 16 17 18 19 20 21
000
FTUS43 KLSX 280900 AAA
TAFCOU
TAF AMD
KCOU 280915Z 2809/0106 11007KT P6SM -SN OVC050
      TEMPO 2809/2811 5SM -SN
     FM281200 11008KT P6SM OVC040
     FM281800 13007KT 2SM -SN SCT008 OVC010
     FM282200 12005KT 1SM -SN OVC008=

USA.gov is the U.S. government's official web portal to all federal, state and local government web resources and services.